Pagrindinis puslapis
METAR-TAF:

METAR-TAF

Oro uostai :

Gurdaka, Egiptas

platuma: 27-09N, ilguma: 033-43E, Aukštis: 16 m

Dabartinis oras

Ataskaita buvo paskelbta 46 minutes, ne 14:00 UTC
Vėjas 13 kt iš Šiaurės/Šiaurės Vakarų
Temperatūra 35°C
Drėgmė 22%
Slėgis 1007 hPa
Matomumas 10 km arba daugiau
nėra debesų žemiau 1500 m ir nėra kamuolinių lietaus debesų

METAR: HEGN 231400Z 34013KT CAVOK 35/10 Q1007 NOSIG

Laikas: 16:46 (14:46 UTC)

Prognozė

Ataskaita buvo paskelbta 3 valandos ir 46 minutes, ne 11:00 UTC
Prognozė galioja nuo 23 metu 12 UTC su 24 metu 18 UTC
Vėjas 6 kt iš Šiaurės su gūsio iki 18 kt
Matomumas 10 km arba daugiau
nėra debesų žemiau 1500 m ir nėra kamuolinių lietaus debesų

TAF: HEGN 231100Z 2312/2418 35006G18KT CAVOK

Orai ataskaitas ir orų prognozės (METAR, TAF).

turimą stotys yra geltonos ir raudonos taškus žemėlapyje.

Perkelti pele per norėdami pamatyti stoties vardą.

Tada spustelėkite, norėdami matyti oro stebėjimo ir prognozės.

Norėdami pakeisti žemėlapį: spustelėkite ant žalios mygtukų su juodo kryžiaus žemyn,; žalią mygtuką su brūkšneliu, jei norite nutolinti; arba žalių rodyklių gretimoms žemėlapius.


METAR-TAF: